sensor_id;sensor_type;location;lat;lon;timestamp;pressure;altitude;pressure_sealevel;temperature;humidity
76106;BME280;64832;45.274;5.880;2023-03-01T18:06:28;98816.84;;;21.26;40.25
76106;BME280;64832;45.274;5.880;2023-03-01T18:08:54;98817.59;;;21.21;40.40
76106;BME280;64832;45.274;5.880;2023-03-01T18:11:20;98818.16;;;21.18;40.71
76106;BME280;64832;45.274;5.880;2023-03-01T18:13:46;98824.09;;;21.15;40.66
76106;BME280;64832;45.274;5.880;2023-03-01T18:16:18;98828.72;;;21.15;40.74
76106;BME280;64832;45.274;5.880;2023-03-01T18:18:44;98825.94;;;21.10;41.21
76106;BME280;64832;45.274;5.880;2023-03-01T18:21:10;98830.56;;;21.09;41.48
76106;BME280;64832;45.274;5.880;2023-03-01T18:23:36;98837.38;;;21.12;41.35
76106;BME280;64832;45.274;5.880;2023-03-01T18:26:04;98825.44;;;21.13;41.35
76106;BME280;64832;45.274;5.880;2023-03-01T18:28:30;98838.75;;;21.14;41.11
76106;BME280;64832;45.274;5.880;2023-03-01T18:30:58;98836.88;;;21.15;41.09
76106;BME280;64832;45.274;5.880;2023-03-01T18:33:24;98827.06;;;21.14;40.92
76106;BME280;64832;45.274;5.880;2023-03-01T18:35:49;98826.81;;;21.15;40.79
76106;BME280;64832;45.274;5.880;2023-03-01T18:38:15;98827.63;;;21.16;40.95
76106;BME280;64832;45.274;5.880;2023-03-01T18:40:41;98832.00;;;21.17;41.08
76106;BME280;64832;45.274;5.880;2023-03-01T18:43:07;98832.81;;;21.17;41.18
76106;BME280;64832;45.274;5.880;2023-03-01T18:45:32;98839.91;;;21.18;41.08
76106;BME280;64832;45.274;5.880;2023-03-01T18:47:57;98838.00;;;21.19;41.03
76106;BME280;64832;45.274;5.880;2023-03-01T18:50:23;98843.19;;;21.20;41.01
76106;BME280;64832;45.274;5.880;2023-03-01T18:52:48;98833.13;;;21.21;41.01
76106;BME280;64832;45.274;5.880;2023-03-01T18:55:13;98838.31;;;21.22;41.24
76106;BME280;64832;45.274;5.880;2023-03-01T18:57:39;98831.75;;;21.18;41.25
76106;BME280;64832;45.274;5.880;2023-03-01T19:00:04;98837.47;;;21.22;41.14
76106;BME280;64832;45.274;5.880;2023-03-01T19:02:30;98840.75;;;21.24;41.14
76106;BME280;64832;45.274;5.880;2023-03-01T19:04:55;98839.97;;;21.23;41.11
76106;BME280;64832;45.274;5.880;2023-03-01T19:07:21;98838.03;;;21.24;41.01
76106;BME280;64832;45.274;5.880;2023-03-01T19:09:46;98845.13;;;21.25;41.26
76106;BME280;64832;45.274;5.880;2023-03-01T19:12:12;98846.19;;;21.24;41.23
76106;BME280;64832;45.274;5.880;2023-03-01T19:14:37;98837.78;;;21.25;41.18
76106;BME280;64832;45.274;5.880;2023-03-01T19:17:02;98838.03;;;21.24;41.13
76106;BME280;64832;45.274;5.880;2023-03-01T19:19:28;98845.13;;;21.25;41.03
76106;BME280;64832;45.274;5.880;2023-03-01T19:21:54;98850.56;;;21.25;41.15
76106;BME280;64832;45.274;5.880;2023-03-01T19:24:19;98844.31;;;21.24;41.20
76106;BME280;64832;45.274;5.880;2023-03-01T19:26:45;98845.13;;;21.25;41.12
76106;BME280;64832;45.274;5.880;2023-03-01T19:29:10;98839.69;;;21.25;41.22
76106;BME280;64832;45.274;5.880;2023-03-01T19:31:37;98847.03;;;21.24;41.24
76106;BME280;64832;45.274;5.880;2023-03-01T19:34:02;98836.66;;;21.21;41.14
76106;BME280;64832;45.274;5.880;2023-03-01T19:36:28;98833.41;;;21.24;41.36
76106;BME280;64832;45.274;5.880;2023-03-01T19:39:02;98837.78;;;21.25;41.21
76106;BME280;64832;45.274;5.880;2023-03-01T19:41:28;98840.50;;;21.25;41.01
76106;BME280;64832;45.274;5.880;2023-03-01T19:43:54;98830.69;;;21.24;41.21
76106;BME280;64832;45.274;5.880;2023-03-01T19:46:21;98827.16;;;21.24;41.09
76106;BME280;64832;45.274;5.880;2023-03-01T19:48:46;98821.66;;;21.19;41.37
76106;BME280;64832;45.274;5.880;2023-03-01T19:51:12;98826.56;;;21.17;41.27
76106;BME280;64832;45.274;5.880;2023-03-01T19:53:38;98835.59;;;21.22;41.31
76106;BME280;64832;45.274;5.880;2023-03-01T19:56:04;98835.84;;;21.21;41.41
76106;BME280;64832;45.274;5.880;2023-03-01T19:58:31;98831.81;;;21.23;41.17
76106;BME280;64832;45.274;5.880;2023-03-01T20:00:57;98835.03;;;21.20;41.17
76106;BME280;64832;45.274;5.880;2023-03-01T20:03:34;98843.75;;;21.22;41.35
76106;BME280;64832;45.274;5.880;2023-03-01T20:06:08;98842.91;;;21.22;41.23
76106;BME280;64832;45.274;5.880;2023-03-01T20:08:34;98839.66;;;21.20;41.15
76106;BME280;64832;45.274;5.880;2023-03-01T20:11:08;98830.94;;;21.18;41.37
76106;BME280;64832;45.274;5.880;2023-03-01T20:13:33;98832.81;;;21.17;41.27
76106;BME280;64832;45.274;5.880;2023-03-01T20:15:59;98832.25;;;21.15;41.43
76106;BME280;64832;45.274;5.880;2023-03-01T20:18:25;98838.25;;;21.17;41.12
76106;BME280;64832;45.274;5.880;2023-03-01T20:20:52;98843.69;;;21.17;41.26
76106;BME280;64832;45.274;5.880;2023-03-01T20:23:18;98838.50;;;21.16;41.33
76106;BME280;64832;45.274;5.880;2023-03-01T20:25:44;98842.31;;;21.15;41.46
76106;BME280;64832;45.274;5.880;2023-03-01T20:28:10;98843.13;;;21.15;41.52
76106;BME280;64832;45.274;5.880;2023-03-01T20:30:38;98846.66;;;21.16;41.44
76106;BME280;64832;45.274;5.880;2023-03-01T20:33:04;98851.31;;;21.15;41.49
76106;BME280;64832;45.274;5.880;2023-03-01T20:35:29;98854.25;;;21.14;41.29
76106;BME280;64832;45.274;5.880;2023-03-01T20:37:57;98854.25;;;21.14;41.38
76106;BME280;64832;45.274;5.880;2023-03-01T20:40:24;98860.03;;;21.17;41.54
76106;BME280;64832;45.274;5.880;2023-03-01T20:42:53;98848.81;;;21.14;41.71
76106;BME280;64832;45.274;5.880;2023-03-01T20:45:19;98844.81;;;21.21;41.85
76106;BME280;64832;45.274;5.880;2023-03-01T20:47:45;98855.19;;;21.24;41.84
76106;BME280;64832;45.274;5.880;2023-03-01T20:50:10;98845.97;;;21.25;42.12
76106;BME280;64832;45.274;5.880;2023-03-01T20:52:36;98847.34;;;21.28;42.11
76106;BME280;64832;45.274;5.880;2023-03-01T20:55:01;98857.97;;;21.29;42.32
76106;BME280;64832;45.274;5.880;2023-03-01T20:57:27;98844.34;;;21.29;42.24
76106;BME280;64832;45.274;5.880;2023-03-01T20:59:52;98850.66;;;21.35;42.22
76106;BME280;64832;45.274;5.880;2023-03-01T21:02:17;98854.72;;;21.32;42.23
76106;BME280;64832;45.274;5.880;2023-03-01T21:04:43;98854.44;;;21.29;41.99
76106;BME280;64832;45.274;5.880;2023-03-01T21:07:08;98843.75;;;21.22;41.85
76106;BME280;64832;45.274;5.880;2023-03-01T21:09:34;98840.72;;;21.19;41.81
76106;BME280;64832;45.274;5.880;2023-03-01T21:11:59;98834.66;;;21.12;41.75
76106;BME280;64832;45.274;5.880;2023-03-01T21:14:24;98843.66;;;21.12;41.73
76106;BME280;64832;45.274;5.880;2023-03-01T21:16:50;98831.53;;;21.03;41.64
